createdAt,value
2019-01-13T12:37:47.182Z,11.69
2019-01-13T12:38:54.587Z,10.85
2019-01-13T12:40:02.079Z,9.36
2019-01-13T12:41:09.407Z,8.83
2019-01-13T12:42:16.814Z,9.58
2019-01-13T12:43:32.569Z,9.26
2019-01-13T16:21:09.150Z,4.90
2019-01-13T17:13:12.846Z,7.02
2019-01-13T19:23:29.368Z,5.02
2019-01-13T19:24:36.779Z,6.02
2019-01-13T19:25:44.190Z,6.12
2019-01-13T19:26:51.595Z,6.61
2019-01-13T19:27:59.010Z,5.83
2019-01-13T19:29:13.365Z,5.79
2019-01-13T19:31:29.560Z,6.89
2019-01-13T19:58:22.839Z,5.46
2019-01-13T20:00:30.560Z,6.13
2019-01-13T20:02:37.952Z,4.15
2019-01-13T20:04:53.141Z,5.14
2019-01-13T20:07:00.508Z,5.08
2019-01-13T20:09:07.895Z,5.01
2019-01-13T20:11:21.860Z,5.05
2019-01-13T20:13:30.448Z,4.67
2019-01-13T20:15:37.846Z,4.69
2019-01-13T20:17:52.208Z,3.20
2019-01-13T20:19:59.576Z,2.81
2019-01-13T20:22:08.190Z,3.89
2019-01-13T20:24:22.155Z,4.70
2019-01-13T20:26:29.519Z,3.83
2019-01-13T20:28:36.909Z,3.84
2019-01-13T20:30:50.875Z,5.11
2019-01-13T20:32:58.239Z,13.90
2019-01-13T20:35:18.940Z,15.47
2019-01-13T20:37:20.794Z,15.48
2019-01-13T20:39:29.421Z,8.36
2019-01-13T20:45:58.849Z,12.07
2019-01-13T20:48:06.327Z,13.33
2019-01-13T21:06:11.309Z,10.35
2019-01-13T21:08:18.760Z,9.39
2019-01-13T21:11:40.854Z,9.76
2019-01-13T21:13:48.492Z,8.97
2019-01-13T21:15:55.883Z,7.85
